createdAt,value
2023-06-30T00:00:14.501Z,2454.00
2023-06-30T00:01:13.938Z,2454.00
2023-06-30T00:02:13.943Z,2455.00
2023-06-30T00:03:14.007Z,2460.00
2023-06-30T00:04:13.987Z,2456.00
2023-06-30T00:05:13.890Z,2461.00
2023-06-30T00:06:13.869Z,2471.00
2023-06-30T00:07:13.886Z,2492.00
2023-06-30T00:08:13.841Z,2520.00
2023-06-30T00:09:13.831Z,2527.00
2023-06-30T00:10:13.852Z,2518.00
2023-06-30T00:11:13.841Z,2536.00
2023-06-30T00:12:13.829Z,2537.00
2023-06-30T00:13:13.835Z,2533.00
2023-06-30T00:14:13.820Z,2551.00
2023-06-30T00:15:13.824Z,2554.00
2023-06-30T00:16:13.886Z,2565.00
2023-06-30T00:17:13.807Z,2561.00
2023-06-30T00:18:13.811Z,2564.00
2023-06-30T00:19:13.818Z,2575.00
2023-06-30T00:20:13.840Z,2576.00
2023-06-30T00:21:13.875Z,2585.00
2023-06-30T00:22:13.865Z,2586.00
2023-06-30T00:23:13.863Z,2589.00
2023-06-30T00:24:13.861Z,2597.00
2023-06-30T00:25:15.394Z,2613.00
2023-06-30T00:26:13.855Z,2643.00
2023-06-30T00:27:13.842Z,2645.00
2023-06-30T00:28:13.829Z,2660.00
2023-06-30T00:29:13.838Z,2656.00
2023-06-30T00:30:13.828Z,2673.00
2023-06-30T00:31:13.834Z,2672.00
2023-06-30T00:32:13.804Z,2689.00
2023-06-30T00:33:13.802Z,2686.00
2023-06-30T00:34:13.811Z,2695.00
2023-06-30T00:35:13.868Z,2705.00
2023-06-30T00:36:13.896Z,2719.00
2023-06-30T00:37:13.950Z,2706.00
2023-06-30T00:38:14.002Z,2710.00
2023-06-30T00:39:14.026Z,2735.00
2023-06-30T00:40:14.076Z,2728.00
2023-06-30T00:41:14.108Z,2736.00
2023-06-30T00:42:14.163Z,2748.00
2023-06-30T00:43:14.203Z,2731.00
2023-06-30T00:44:14.246Z,2751.00
2023-06-30T00:45:14.304Z,2750.00
2023-06-30T00:46:14.336Z,2765.00
2023-06-30T00:47:14.439Z,2784.00
2023-06-30T00:48:14.415Z,2788.00
2023-06-30T00:49:14.462Z,2791.00
2023-06-30T00:50:14.520Z,2792.00
2023-06-30T00:51:14.564Z,2794.00
2023-06-30T00:52:14.595Z,2809.00
2023-06-30T00:53:14.658Z,2815.00
2023-06-30T00:54:14.695Z,2824.00
2023-06-30T00:55:14.765Z,2836.00
2023-06-30T00:56:14.789Z,2845.00
2023-06-30T00:57:14.834Z,2848.00
2023-06-30T00:58:14.875Z,2851.00
2023-06-30T00:59:14.947Z,2849.00
2023-06-30T01:00:15.069Z,2862.00
2023-06-30T01:01:15.069Z,2872.00
2023-06-30T01:02:15.054Z,2875.00
2023-06-30T01:03:15.245Z,2872.00
2023-06-30T01:04:15.209Z,2892.00
2023-06-30T01:05:15.202Z,2880.00
2023-06-30T01:06:15.239Z,2884.00
2023-06-30T01:07:15.378Z,2892.00
2023-06-30T01:08:15.349Z,2904.00
2023-06-30T01:09:15.380Z,2915.00
2023-06-30T01:10:15.448Z,2922.00
2023-06-30T01:11:15.486Z,2918.00
2023-06-30T01:12:15.555Z,2930.00
2023-06-30T01:13:15.587Z,2931.00
2023-06-30T01:14:15.629Z,2943.00
2023-06-30T01:15:15.696Z,2927.00
2023-06-30T01:16:15.768Z,2942.00
2023-06-30T01:17:15.768Z,2947.00
2023-06-30T01:18:15.803Z,2959.00
2023-06-30T01:19:15.863Z,2964.00
2023-06-30T01:20:15.901Z,2959.00
2023-06-30T01:21:15.942Z,2972.00
2023-06-30T01:22:15.997Z,2978.00
2023-06-30T01:23:16.036Z,2962.00
2023-06-30T01:24:16.089Z,2987.00
2023-06-30T01:25:16.139Z,2986.00
2023-06-30T01:26:16.241Z,2986.00
2023-06-30T01:27:16.264Z,3000.00
2023-06-30T01:28:16.297Z,3000.00
2023-06-30T01:29:16.413Z,3010.00
2023-06-30T01:30:16.407Z,3015.00
2023-06-30T01:31:16.548Z,3012.00
2023-06-30T01:32:16.511Z,3021.00
2023-06-30T01:33:16.584Z,3032.00
2023-06-30T01:34:16.631Z,3028.00
2023-06-30T01:35:16.688Z,3039.00
2023-06-30T01:36:16.732Z,3027.00
2023-06-30T01:37:16.738Z,3028.00
2023-06-30T01:38:16.753Z,3032.00
2023-06-30T01:39:16.735Z,3038.00
2023-06-30T01:40:16.734Z,3041.00
2023-06-30T01:41:16.736Z,3052.00
2023-06-30T01:42:16.714Z,3060.00
2023-06-30T01:43:16.703Z,3064.00
2023-06-30T01:44:16.696Z,3062.00
2023-06-30T01:45:16.718Z,3066.00
2023-06-30T01:46:16.765Z,3072.00
2023-06-30T01:47:16.707Z,3081.00
2023-06-30T01:48:16.754Z,3077.00
2023-06-30T01:49:16.813Z,3075.00
2023-06-30T01:50:16.930Z,3096.00
2023-06-30T01:51:16.936Z,3082.00
2023-06-30T01:52:16.984Z,3099.00
2023-06-30T01:53:17.046Z,3099.00
2023-06-30T01:54:17.094Z,3090.00
2023-06-30T01:55:17.160Z,3115.00
2023-06-30T01:56:17.201Z,3120.00
2023-06-30T01:57:17.269Z,3108.00
2023-06-30T01:58:17.343Z,3123.00
2023-06-30T01:59:17.371Z,3130.00
2023-06-30T02:00:17.427Z,3123.00
2023-06-30T02:01:17.518Z,3128.00
2023-06-30T02:02:17.526Z,3140.00
2023-06-30T02:03:17.674Z,3134.00
2023-06-30T02:04:17.674Z,3134.00
2023-06-30T02:05:17.712Z,3135.00
2023-06-30T02:06:17.766Z,3144.00
2023-06-30T02:07:17.881Z,3151.00
2023-06-30T02:08:17.871Z,3158.00
2023-06-30T02:09:17.955Z,3163.00
2023-06-30T02:10:18.009Z,3157.00
2023-06-30T02:11:18.065Z,3159.00
2023-06-30T02:12:18.114Z,3171.00
2023-06-30T02:13:18.202Z,3168.00
2023-06-30T02:14:18.219Z,3174.00
2023-06-30T02:15:18.291Z,3174.00
2023-06-30T02:16:18.440Z,3177.00
2023-06-30T02:17:18.412Z,3162.00
2023-06-30T02:18:18.463Z,3162.00
2023-06-30T02:19:18.529Z,3169.00
2023-06-30T02:20:18.565Z,3170.00
2023-06-30T02:21:18.514Z,3171.00
2023-06-30T02:22:18.498Z,3172.00
2023-06-30T02:23:18.507Z,3173.00
2023-06-30T02:24:18.502Z,3189.00
2023-06-30T02:25:18.509Z,3178.00
2023-06-30T02:26:18.495Z,3183.00
2023-06-30T02:27:18.504Z,3190.00
2023-06-30T02:28:18.661Z,3192.00
2023-06-30T02:29:18.490Z,3188.00
2023-06-30T02:30:18.549Z,3195.00
2023-06-30T02:31:18.729Z,3192.00
2023-06-30T02:32:18.688Z,3198.00
2023-06-30T02:33:18.718Z,3205.00
2023-06-30T02:34:18.793Z,3194.00
2023-06-30T02:35:18.910Z,3204.00
2023-06-30T02:36:18.901Z,3207.00
2023-06-30T02:37:18.976Z,3214.00
2023-06-30T02:38:19.021Z,3212.00
2023-06-30T02:39:19.084Z,3212.00
2023-06-30T02:40:19.163Z,3212.00
2023-06-30T02:41:19.222Z,3217.00
2023-06-30T02:42:19.257Z,3225.00
2023-06-30T02:43:19.321Z,3237.00
2023-06-30T02:44:19.358Z,3239.00
2023-06-30T02:45:19.368Z,3240.00
2023-06-30T02:46:19.410Z,3240.00
2023-06-30T02:47:19.386Z,3239.00
2023-06-30T02:48:19.336Z,3246.00
2023-06-30T02:49:19.326Z,3249.00
2023-06-30T02:50:19.344Z,3246.00
2023-06-30T02:51:19.330Z,3258.00
2023-06-30T02:52:19.328Z,3243.00
2023-06-30T02:53:19.327Z,3254.00
2023-06-30T02:54:19.355Z,3251.00
2023-06-30T02:55:19.419Z,3261.00
2023-06-30T02:56:19.487Z,3259.00
2023-06-30T02:57:19.538Z,3257.00
2023-06-30T02:58:19.624Z,3266.00
2023-06-30T02:59:19.592Z,3266.00
2023-06-30T03:00:19.596Z,3267.00
2023-06-30T03:01:19.691Z,3271.00
2023-06-30T03:02:19.736Z,3274.00
2023-06-30T03:03:19.690Z,3286.00
2023-06-30T03:04:19.594Z,3286.00
2023-06-30T03:05:19.603Z,3283.00
2023-06-30T03:06:19.610Z,3285.00
2023-06-30T03:07:19.637Z,3289.00
2023-06-30T03:08:19.602Z,3282.00
2023-06-30T03:09:19.665Z,3286.00
2023-06-30T03:10:19.767Z,3281.00
2023-06-30T03:11:19.803Z,3277.00
2023-06-30T03:12:19.880Z,3267.00
2023-06-30T03:13:19.872Z,3268.00
2023-06-30T03:14:19.882Z,3269.00
2023-06-30T03:15:19.885Z,3270.00
2023-06-30T03:16:19.916Z,3270.00
2023-06-30T03:17:19.904Z,3280.00
2023-06-30T03:18:19.864Z,3282.00
2023-06-30T03:19:19.859Z,3276.00
2023-06-30T03:20:19.881Z,3277.00
2023-06-30T03:21:19.872Z,3279.00
2023-06-30T03:22:19.924Z,3273.00
2023-06-30T03:23:20.038Z,3278.00
2023-06-30T03:24:20.033Z,3265.00
2023-06-30T03:25:20.089Z,3270.00
2023-06-30T03:26:20.171Z,3267.00
2023-06-30T03:27:20.227Z,3274.00
2023-06-30T03:28:20.300Z,3266.00
2023-06-30T03:29:20.387Z,3262.00
2023-06-30T03:30:20.461Z,3273.00
2023-06-30T03:31:20.590Z,3268.00
2023-06-30T03:32:20.573Z,3273.00
2023-06-30T03:33:20.617Z,3267.00
2023-06-30T03:34:20.669Z,3267.00
2023-06-30T03:35:20.758Z,3256.00
2023-06-30T03:36:20.800Z,3264.00
2023-06-30T03:38:39.625Z,500.00
2023-06-30T03:39:39.635Z,500.00
2023-06-30T03:40:39.672Z,500.00
2023-06-30T03:41:39.626Z,500.00
2023-06-30T03:42:39.611Z,500.00
2023-06-30T03:43:39.605Z,500.00
2023-06-30T03:44:39.654Z,502.00
2023-06-30T03:45:39.790Z,500.00
2023-06-30T03:46:39.663Z,500.00
2023-06-30T03:47:39.643Z,508.00
2023-06-30T03:48:39.587Z,502.00
2023-06-30T03:49:39.579Z,501.00
2023-06-30T03:50:39.570Z,507.00
2023-06-30T03:51:39.561Z,507.00
2023-06-30T03:52:39.535Z,504.00
2023-06-30T03:53:39.521Z,510.00
2023-06-30T03:54:39.500Z,506.00
2023-06-30T03:55:39.513Z,511.00
2023-06-30T03:56:39.484Z,507.00
2023-06-30T03:57:39.486Z,509.00
2023-06-30T03:58:39.476Z,510.00
2023-06-30T03:59:39.462Z,509.00
2023-06-30T04:00:39.450Z,511.00
2023-06-30T04:01:39.429Z,512.00
2023-06-30T04:02:39.506Z,510.00
2023-06-30T04:03:39.556Z,509.00
2023-06-30T04:04:39.592Z,512.00
2023-06-30T04:05:39.424Z,514.00
2023-06-30T04:06:39.410Z,515.00
2023-06-30T04:07:39.490Z,518.00
2023-06-30T04:08:39.394Z,514.00
2023-06-30T04:09:39.389Z,511.00
2023-06-30T04:10:39.393Z,512.00
2023-06-30T04:11:39.374Z,512.00
2023-06-30T04:12:39.362Z,515.00
2023-06-30T04:13:39.353Z,517.00
2023-06-30T04:14:39.342Z,521.00
2023-06-30T04:15:39.345Z,524.00
2023-06-30T04:16:39.400Z,521.00
2023-06-30T04:17:39.388Z,516.00
2023-06-30T04:18:39.378Z,517.00
2023-06-30T04:19:39.448Z,516.00
2023-06-30T04:20:39.518Z,521.00
2023-06-30T04:21:39.568Z,521.00
2023-06-30T04:22:39.642Z,517.00
2023-06-30T04:23:39.707Z,527.00
2023-06-30T04:24:39.764Z,522.00
2023-06-30T04:25:39.830Z,519.00
2023-06-30T04:26:39.863Z,522.00
2023-06-30T04:27:39.931Z,523.00
2023-06-30T04:28:39.971Z,526.00
2023-06-30T04:29:40.043Z,523.00
2023-06-30T04:30:40.126Z,523.00
2023-06-30T04:31:40.193Z,522.00
2023-06-30T04:32:40.293Z,521.00
2023-06-30T04:33:40.286Z,520.00
2023-06-30T04:34:40.332Z,521.00
2023-06-30T04:35:40.423Z,522.00
2023-06-30T04:36:40.408Z,523.00
2023-06-30T04:37:40.484Z,525.00
2023-06-30T04:38:40.554Z,521.00
2023-06-30T04:39:40.580Z,520.00
2023-06-30T04:40:40.646Z,518.00
2023-06-30T04:41:40.687Z,526.00
2023-06-30T04:42:40.731Z,523.00
2023-06-30T04:43:40.796Z,517.00
2023-06-30T04:44:40.851Z,520.00
2023-06-30T04:45:40.913Z,518.00
2023-06-30T04:46:41.092Z,516.00
2023-06-30T04:47:41.056Z,525.00
2023-06-30T04:48:41.081Z,522.00
2023-06-30T04:49:41.147Z,521.00
2023-06-30T04:50:41.205Z,520.00
2023-06-30T04:51:41.263Z,527.00
2023-06-30T04:52:41.316Z,524.00
2023-06-30T04:53:41.362Z,520.00
2023-06-30T04:54:41.429Z,521.00
2023-06-30T04:55:41.519Z,521.00
2023-06-30T04:56:41.588Z,519.00
2023-06-30T04:57:41.611Z,524.00
2023-06-30T04:58:41.671Z,521.00
2023-06-30T04:59:41.756Z,524.00
2023-06-30T05:00:41.798Z,524.00
2023-06-30T05:01:41.864Z,526.00
2023-06-30T05:02:41.944Z,525.00
2023-06-30T05:03:42.010Z,523.00
2023-06-30T05:04:42.059Z,525.00
2023-06-30T05:05:42.134Z,519.00
2023-06-30T05:06:42.190Z,523.00
2023-06-30T05:07:42.298Z,519.00
2023-06-30T05:08:42.306Z,520.00
2023-06-30T05:09:42.372Z,515.00
2023-06-30T05:10:42.445Z,514.00
2023-06-30T05:11:42.506Z,516.00
2023-06-30T05:12:42.547Z,519.00
2023-06-30T05:13:42.619Z,513.00
2023-06-30T05:14:42.699Z,518.00
2023-06-30T05:15:42.888Z,517.00
2023-06-30T05:16:42.875Z,515.00
2023-06-30T05:17:42.899Z,516.00
2023-06-30T05:18:42.951Z,517.00
2023-06-30T05:19:43.001Z,516.00
2023-06-30T05:20:43.066Z,515.00
2023-06-30T05:21:43.108Z,522.00
2023-06-30T05:22:43.190Z,518.00
2023-06-30T05:23:43.244Z,516.00
2023-06-30T05:24:43.301Z,518.00
2023-06-30T05:25:43.655Z,519.00
2023-06-30T05:26:43.412Z,518.00
2023-06-30T05:27:43.457Z,518.00
2023-06-30T05:28:50.021Z,519.00
2023-06-30T05:29:44.566Z,520.00
2023-06-30T05:30:43.537Z,520.00
2023-06-30T05:31:43.540Z,520.00
2023-06-30T05:32:43.530Z,519.00
2023-06-30T05:33:43.537Z,515.00
2023-06-30T05:34:43.500Z,517.00
2023-06-30T05:35:43.747Z,519.00
2023-06-30T05:36:43.525Z,521.00
2023-06-30T05:37:43.574Z,518.00
2023-06-30T05:38:43.613Z,520.00
2023-06-30T05:39:43.667Z,512.00
2023-06-30T05:40:43.748Z,519.00
2023-06-30T05:41:43.793Z,521.00
2023-06-30T05:42:43.837Z,534.00
2023-06-30T05:43:43.899Z,545.00
2023-06-30T05:44:44.018Z,552.00
2023-06-30T05:45:44.170Z,553.00
2023-06-30T05:46:43.992Z,554.00
2023-06-30T05:47:43.981Z,562.00
2023-06-30T05:48:43.922Z,584.00
2023-06-30T05:49:43.967Z,628.00
2023-06-30T05:50:43.965Z,722.00
2023-06-30T05:51:43.933Z,789.00
2023-06-30T05:52:43.944Z,813.00
2023-06-30T05:53:43.931Z,854.00
2023-06-30T05:54:43.961Z,882.00
2023-06-30T05:55:44.116Z,900.00
2023-06-30T05:56:43.918Z,972.00
2023-06-30T05:57:43.923Z,994.00
2023-06-30T05:58:43.917Z,1034.00
2023-06-30T05:59:43.926Z,1089.00
2023-06-30T06:00:43.948Z,1091.00
2023-06-30T06:01:43.907Z,1093.00
2023-06-30T06:02:43.980Z,1114.00
2023-06-30T06:03:44.198Z,1155.00
2023-06-30T06:04:44.191Z,1230.00
2023-06-30T06:05:44.438Z,1337.00
2023-06-30T06:06:43.896Z,1345.00
2023-06-30T06:07:44.115Z,1396.00
2023-06-30T06:08:43.873Z,1430.00
2023-06-30T06:09:43.857Z,1406.00
2023-06-30T06:10:43.864Z,1429.00
2023-06-30T06:11:43.864Z,1430.00
2023-06-30T06:12:43.847Z,1437.00
2023-06-30T06:13:43.831Z,1433.00
2023-06-30T06:14:43.834Z,1451.00
2023-06-30T06:15:44.151Z,1483.00
2023-06-30T06:16:43.894Z,1533.00
2023-06-30T06:17:43.854Z,1542.00
2023-06-30T06:18:43.779Z,1536.00
2023-06-30T06:19:43.769Z,1581.00
2023-06-30T06:20:44.862Z,1626.00
2023-06-30T06:21:43.769Z,1672.00
2023-06-30T06:22:43.771Z,1721.00
2023-06-30T06:23:43.776Z,1740.00
2023-06-30T06:24:43.783Z,1766.00
2023-06-30T06:25:45.440Z,1777.00
2023-06-30T06:26:43.746Z,1781.00
2023-06-30T06:27:43.758Z,1802.00
2023-06-30T06:28:43.750Z,1797.00
2023-06-30T06:29:43.717Z,1837.00
2023-06-30T06:30:43.769Z,1841.00
2023-06-30T06:31:43.700Z,1862.00
2023-06-30T06:32:43.741Z,1861.00
2023-06-30T06:33:43.708Z,1870.00
2023-06-30T06:34:43.677Z,1893.00
2023-06-30T06:35:44.001Z,1915.00
2023-06-30T06:36:43.676Z,1916.00
2023-06-30T06:37:43.659Z,1955.00
2023-06-30T06:38:43.631Z,1957.00
2023-06-30T06:39:43.627Z,1965.00
2023-06-30T06:40:43.640Z,1980.00
2023-06-30T06:41:43.631Z,2017.00
2023-06-30T06:42:43.613Z,2031.00
2023-06-30T06:43:43.606Z,2008.00
2023-06-30T06:44:43.621Z,1986.00
2023-06-30T06:45:44.002Z,1982.00
2023-06-30T06:46:43.663Z,1990.00
2023-06-30T06:47:43.607Z,1960.00
2023-06-30T06:48:43.541Z,1928.00
2023-06-30T06:49:46.106Z,1873.00
2023-06-30T06:50:43.518Z,1828.00
2023-06-30T06:51:43.624Z,1820.00
2023-06-30T06:52:43.486Z,1771.00
2023-06-30T06:53:43.530Z,1727.00
2023-06-30T06:54:43.569Z,1697.00
2023-06-30T06:55:43.655Z,1627.00
2023-06-30T06:56:43.441Z,1573.00
2023-06-30T06:57:43.427Z,1517.00
2023-06-30T06:58:43.411Z,1456.00
2023-06-30T06:59:43.408Z,1402.00
2023-06-30T07:00:43.401Z,1376.00
2023-06-30T07:01:43.460Z,1306.00
2023-06-30T07:02:43.401Z,1255.00
2023-06-30T07:03:43.372Z,1206.00
2023-06-30T07:04:43.334Z,1188.00
2023-06-30T07:05:43.582Z,1143.00
2023-06-30T07:06:43.335Z,1115.00
2023-06-30T07:07:43.402Z,1077.00
2023-06-30T07:08:43.337Z,1035.00
2023-06-30T07:09:43.308Z,1009.00
2023-06-30T07:10:43.311Z,991.00
2023-06-30T07:11:43.900Z,951.00
2023-06-30T07:12:43.289Z,922.00
2023-06-30T07:13:43.286Z,887.00
2023-06-30T07:14:45.847Z,857.00
2023-06-30T07:15:43.549Z,839.00
2023-06-30T07:16:43.341Z,808.00
2023-06-30T07:17:43.303Z,780.00
2023-06-30T07:18:43.296Z,748.00
2023-06-30T07:19:43.261Z,729.00
2023-06-30T07:20:43.237Z,718.00
2023-06-30T07:21:43.295Z,688.00
2023-06-30T07:22:43.247Z,675.00
2023-06-30T07:23:43.931Z,655.00
2023-06-30T07:24:44.233Z,656.00
2023-06-30T07:25:43.690Z,649.00
2023-06-30T07:26:43.520Z,639.00
2023-06-30T07:27:43.587Z,629.00
2023-06-30T07:28:43.617Z,615.00
2023-06-30T07:29:43.649Z,614.00
2023-06-30T07:30:43.790Z,612.00
2023-06-30T07:31:43.786Z,606.00
2023-06-30T07:32:43.857Z,621.00
2023-06-30T07:33:43.882Z,623.00
2023-06-30T07:34:43.970Z,626.00
2023-06-30T07:35:44.644Z,634.00
2023-06-30T07:36:44.212Z,656.00
2023-06-30T07:37:44.073Z,700.00
2023-06-30T07:38:44.142Z,738.00
2023-06-30T07:39:44.191Z,777.00
2023-06-30T07:40:55.281Z,874.00
2023-06-30T07:41:45.267Z,879.00
2023-06-30T07:42:44.238Z,900.00
2023-06-30T07:43:44.214Z,942.00
2023-06-30T07:44:44.216Z,1002.00
2023-06-30T07:45:44.660Z,1076.00
2023-06-30T07:46:44.196Z,1077.00
2023-06-30T07:47:44.289Z,1047.00
2023-06-30T07:48:44.281Z,1039.00
2023-06-30T07:49:44.235Z,931.00
2023-06-30T07:50:54.745Z,889.00
2023-06-30T07:51:45.213Z,888.00
2023-06-30T07:52:44.310Z,854.00
2023-06-30T07:53:44.177Z,866.00
2023-06-30T07:54:44.207Z,815.00
2023-06-30T07:55:44.513Z,728.00
2023-06-30T07:56:44.171Z,673.00
2023-06-30T07:57:44.265Z,656.00
2023-06-30T07:58:44.205Z,644.00
2023-06-30T07:59:44.186Z,632.00
2023-06-30T08:00:44.197Z,638.00
2023-06-30T08:01:44.202Z,643.00
2023-06-30T08:02:44.262Z,645.00
2023-06-30T08:03:44.392Z,651.00
2023-06-30T08:04:44.462Z,662.00
2023-06-30T08:05:44.739Z,661.00
2023-06-30T08:06:44.211Z,696.00
2023-06-30T08:07:50.307Z,725.00
2023-06-30T08:08:45.232Z,726.00
2023-06-30T08:09:44.264Z,735.00
2023-06-30T08:10:45.007Z,749.00
2023-06-30T08:11:44.210Z,789.00
2023-06-30T08:12:44.227Z,836.00
2023-06-30T08:13:44.207Z,858.00
2023-06-30T08:14:44.206Z,875.00
2023-06-30T08:15:46.665Z,877.00
2023-06-30T08:16:44.238Z,877.00
2023-06-30T08:17:53.195Z,883.00
2023-06-30T08:18:51.168Z,878.00
2023-06-30T08:19:48.428Z,879.00
2023-06-30T08:20:44.303Z,879.00
2023-06-30T08:21:44.231Z,890.00
2023-06-30T08:22:46.344Z,904.00
2023-06-30T08:23:44.180Z,878.00
2023-06-30T08:24:44.172Z,879.00
2023-06-30T08:25:44.628Z,885.00
2023-06-30T08:26:44.145Z,886.00
2023-06-30T08:27:44.153Z,884.00
2023-06-30T08:28:44.125Z,884.00
2023-06-30T08:29:44.192Z,870.00
2023-06-30T08:30:44.164Z,868.00
2023-06-30T08:31:44.118Z,876.00
2023-06-30T08:32:44.170Z,867.00
2023-06-30T08:33:44.150Z,859.00
2023-06-30T08:34:44.104Z,842.00
2023-06-30T08:35:44.304Z,802.00
2023-06-30T08:36:44.127Z,762.00
2023-06-30T08:37:44.108Z,727.00
2023-06-30T08:38:44.179Z,696.00
2023-06-30T08:39:44.114Z,668.00
2023-06-30T08:40:44.116Z,646.00
2023-06-30T08:41:44.144Z,634.00
2023-06-30T08:42:44.200Z,626.00
2023-06-30T08:43:44.141Z,617.00
2023-06-30T08:44:44.142Z,599.00
2023-06-30T08:45:44.502Z,584.00
2023-06-30T08:46:44.186Z,573.00
2023-06-30T08:47:44.167Z,559.00
2023-06-30T08:48:44.144Z,546.00
2023-06-30T08:49:44.147Z,536.00
2023-06-30T08:50:44.148Z,529.00
2023-06-30T08:51:44.147Z,515.00
2023-06-30T08:52:44.151Z,505.00
2023-06-30T08:53:44.224Z,506.00
2023-06-30T08:54:44.172Z,501.00
2023-06-30T08:55:44.393Z,500.00
2023-06-30T08:56:44.157Z,504.00
2023-06-30T08:57:44.203Z,501.00
2023-06-30T08:58:44.246Z,502.00
2023-06-30T08:59:44.263Z,501.00
2023-06-30T09:00:44.349Z,500.00
2023-06-30T09:01:47.010Z,500.00
2023-06-30T09:02:44.543Z,500.00
2023-06-30T09:03:44.435Z,500.00
2023-06-30T09:04:44.425Z,500.00
2023-06-30T09:05:44.518Z,502.00
2023-06-30T09:06:44.382Z,501.00
2023-06-30T09:07:44.540Z,505.00
2023-06-30T09:08:44.380Z,503.00
2023-06-30T09:09:44.381Z,511.00
2023-06-30T09:10:44.417Z,510.00
2023-06-30T09:11:44.392Z,505.00
2023-06-30T09:12:44.394Z,510.00
2023-06-30T09:13:44.406Z,508.00
2023-06-30T09:14:44.403Z,500.00
2023-06-30T09:15:44.785Z,508.00
2023-06-30T09:16:44.454Z,503.00
2023-06-30T09:17:44.482Z,505.00
2023-06-30T09:18:44.431Z,505.00
2023-06-30T09:19:44.432Z,502.00
2023-06-30T09:20:44.458Z,501.00
2023-06-30T09:21:44.452Z,493.00
2023-06-30T09:22:55.100Z,489.00
2023-06-30T09:23:45.587Z,501.00
2023-06-30T09:24:44.454Z,489.00
2023-06-30T09:25:44.940Z,489.00
2023-06-30T09:26:44.472Z,476.00
2023-06-30T09:27:44.511Z,474.00
2023-06-30T09:28:44.479Z,504.00
2023-06-30T09:29:44.510Z,506.00
2023-06-30T09:30:44.516Z,512.00
2023-06-30T09:31:44.609Z,515.00
2023-06-30T09:32:44.652Z,515.00
2023-06-30T09:33:44.706Z,514.00
2023-06-30T09:34:44.774Z,526.00
2023-06-30T09:35:45.211Z,523.00
2023-06-30T09:36:44.905Z,523.00
2023-06-30T09:37:44.947Z,522.00
2023-06-30T09:38:44.975Z,524.00
2023-06-30T09:39:45.017Z,525.00
2023-06-30T09:40:45.053Z,527.00
2023-06-30T09:41:45.089Z,529.00
2023-06-30T09:42:46.123Z,534.00
2023-06-30T09:43:45.289Z,538.00
2023-06-30T09:44:45.327Z,545.00
2023-06-30T09:45:45.626Z,553.00
2023-06-30T09:46:45.505Z,568.00
2023-06-30T09:47:45.407Z,567.00
2023-06-30T09:48:45.423Z,588.00
2023-06-30T09:49:45.513Z,612.00
2023-06-30T09:50:45.442Z,628.00
2023-06-30T09:51:45.418Z,628.00
2023-06-30T09:52:45.420Z,630.00
2023-06-30T09:53:45.421Z,637.00
2023-06-30T09:54:45.431Z,661.00
2023-06-30T09:55:45.625Z,630.00
2023-06-30T09:56:45.449Z,636.00
2023-06-30T09:57:45.450Z,647.00
2023-06-30T09:58:45.461Z,668.00
2023-06-30T09:59:45.469Z,798.00
2023-06-30T10:00:45.470Z,907.00
2023-06-30T10:01:45.550Z,910.00
2023-06-30T10:02:45.676Z,924.00
2023-06-30T10:03:45.545Z,952.00
2023-06-30T10:04:45.494Z,987.00
2023-06-30T10:05:45.840Z,1003.00
2023-06-30T10:06:45.441Z,1011.00
2023-06-30T10:07:45.456Z,1011.00
2023-06-30T10:08:45.443Z,1002.00
2023-06-30T10:09:45.452Z,997.00
2023-06-30T10:10:45.501Z,998.00
2023-06-30T10:11:45.443Z,1015.00
2023-06-30T10:12:45.471Z,1008.00
2023-06-30T10:13:45.449Z,997.00
2023-06-30T10:14:45.449Z,1037.00
2023-06-30T10:15:45.806Z,1045.00
2023-06-30T10:16:45.448Z,1085.00
2023-06-30T10:17:45.595Z,1100.00
2023-06-30T10:18:45.469Z,1150.00
2023-06-30T10:19:45.467Z,1137.00
2023-06-30T10:20:49.489Z,1146.00
2023-06-30T10:21:45.488Z,1146.00
2023-06-30T10:22:45.494Z,1126.00
2023-06-30T10:23:45.498Z,1117.00
2023-06-30T10:24:45.497Z,1115.00
2023-06-30T10:25:45.802Z,1112.00
2023-06-30T10:26:45.550Z,1149.00
2023-06-30T10:27:45.474Z,1159.00
2023-06-30T10:28:45.513Z,1209.00
2023-06-30T10:29:45.484Z,1305.00
2023-06-30T10:30:45.476Z,1266.00
2023-06-30T10:31:45.618Z,1242.00
2023-06-30T10:32:45.513Z,1213.00
2023-06-30T10:33:45.554Z,1188.00
2023-06-30T10:34:45.520Z,1215.00
2023-06-30T10:35:45.709Z,1246.00
2023-06-30T10:36:45.523Z,1329.00
2023-06-30T10:37:45.523Z,1429.00
2023-06-30T10:38:45.516Z,1492.00
2023-06-30T10:39:45.491Z,1525.00
2023-06-30T10:40:45.499Z,1549.00
2023-06-30T10:41:45.498Z,1551.00
2023-06-30T10:42:45.525Z,1555.00
2023-06-30T10:43:45.516Z,1560.00
2023-06-30T10:44:45.504Z,1566.00
2023-06-30T10:45:45.743Z,1592.00
2023-06-30T10:46:45.481Z,1598.00
2023-06-30T10:47:45.482Z,1601.00
2023-06-30T10:48:45.474Z,1601.00
2023-06-30T10:49:45.445Z,1590.00
2023-06-30T10:50:45.576Z,1594.00
2023-06-30T10:51:45.441Z,1593.00
2023-06-30T10:52:45.444Z,1578.00
2023-06-30T10:53:45.480Z,1586.00
2023-06-30T10:54:45.544Z,1584.00
2023-06-30T10:55:46.461Z,1589.00
2023-06-30T10:56:45.623Z,1582.00
2023-06-30T10:57:45.631Z,1595.00
2023-06-30T10:58:45.691Z,1582.00
2023-06-30T10:59:45.735Z,1575.00
2023-06-30T11:00:45.826Z,1578.00
2023-06-30T11:01:45.866Z,1584.00
2023-06-30T11:02:45.995Z,1580.00
2023-06-30T11:03:46.117Z,1576.00
2023-06-30T11:04:46.153Z,1579.00
2023-06-30T11:05:46.311Z,1581.00
2023-06-30T11:06:46.145Z,1582.00
2023-06-30T11:07:46.189Z,1571.00
2023-06-30T11:08:46.253Z,1568.00
2023-06-30T11:09:46.323Z,1568.00
2023-06-30T11:10:46.384Z,1566.00
2023-06-30T11:11:46.432Z,1568.00
2023-06-30T11:12:46.432Z,1569.00
2023-06-30T11:13:46.433Z,1569.00
2023-06-30T11:14:46.436Z,1562.00
2023-06-30T11:15:47.337Z,1565.00
2023-06-30T11:16:46.408Z,1573.00
2023-06-30T11:17:46.508Z,1562.00
2023-06-30T11:18:46.491Z,1565.00
2023-06-30T11:19:46.504Z,1561.00
2023-06-30T11:20:46.415Z,1557.00
2023-06-30T11:21:46.477Z,1555.00
2023-06-30T11:22:46.557Z,1543.00
2023-06-30T11:23:46.605Z,1553.00
2023-06-30T11:24:46.635Z,1548.00
2023-06-30T11:25:46.723Z,1554.00
2023-06-30T11:26:46.761Z,1540.00
2023-06-30T11:27:46.841Z,1539.00
2023-06-30T11:28:46.854Z,1540.00
2023-06-30T11:29:46.855Z,1543.00
2023-06-30T11:30:46.883Z,1544.00
2023-06-30T11:31:46.807Z,1550.00
2023-06-30T11:32:46.883Z,1535.00
2023-06-30T11:33:46.819Z,1540.00
2023-06-30T11:34:46.820Z,1540.00
2023-06-30T11:35:46.967Z,1542.00
2023-06-30T11:36:46.789Z,1541.00
2023-06-30T11:37:46.774Z,1541.00
2023-06-30T11:38:47.159Z,1541.00
2023-06-30T11:39:46.791Z,1542.00
2023-06-30T11:40:46.757Z,1544.00
2023-06-30T11:41:46.749Z,1541.00
2023-06-30T11:42:46.831Z,1524.00
2023-06-30T11:43:46.724Z,1534.00
2023-06-30T11:44:46.727Z,1541.00
2023-06-30T11:45:46.887Z,1527.00
2023-06-30T11:46:46.812Z,1526.00
2023-06-30T11:47:46.868Z,1532.00
2023-06-30T11:48:46.886Z,1524.00
2023-06-30T11:49:46.938Z,1521.00
2023-06-30T11:50:47.218Z,1521.00
2023-06-30T11:51:47.051Z,1521.00
2023-06-30T11:52:47.122Z,1508.00
2023-06-30T11:53:47.182Z,1500.00
2023-06-30T11:54:47.228Z,1510.00
2023-06-30T11:55:47.549Z,1510.00
2023-06-30T11:56:47.336Z,1529.00
2023-06-30T11:57:47.402Z,1520.00
2023-06-30T11:58:47.454Z,1507.00
2023-06-30T11:59:47.508Z,1502.00
2023-06-30T12:00:47.783Z,1521.00
2023-06-30T12:01:47.609Z,1524.00
2023-06-30T12:02:49.617Z,1538.00
2023-06-30T12:03:47.760Z,1540.00
2023-06-30T12:04:47.753Z,1546.00
2023-06-30T12:05:47.841Z,1551.00
2023-06-30T12:06:47.652Z,1556.00
2023-06-30T12:07:47.652Z,1571.00
2023-06-30T12:08:47.640Z,1564.00
2023-06-30T12:09:47.714Z,1545.00
2023-06-30T12:10:47.669Z,1541.00
2023-06-30T12:11:47.795Z,1539.00
2023-06-30T12:12:47.612Z,1515.00
2023-06-30T12:13:47.617Z,1513.00
2023-06-30T12:14:47.591Z,1509.00
2023-06-30T12:15:47.714Z,1479.00
2023-06-30T12:16:47.709Z,1456.00